sensor_id;sensor_type;location;lat;lon;timestamp;temperature;humidity
292;DHT22;23311;48.776;9.162;2024-01-10T00:00:53;-3.20;95.50
292;DHT22;23311;48.776;9.162;2024-01-10T00:03:22;-3.30;95.50
292;DHT22;23311;48.776;9.162;2024-01-10T00:05:50;-3.20;95.50
292;DHT22;23311;48.776;9.162;2024-01-10T00:08:19;-3.20;95.50
292;DHT22;23311;48.776;9.162;2024-01-10T00:10:47;-3.10;95.50
292;DHT22;23311;48.776;9.162;2024-01-10T00:13:15;-3.10;95.50
292;DHT22;23311;48.776;9.162;2024-01-10T00:15:45;-3.00;95.50
292;DHT22;23311;48.776;9.162;2024-01-10T00:18:13;-3.10;95.50
292;DHT22;23311;48.776;9.162;2024-01-10T00:20:41;-3.10;95.50
292;DHT22;23311;48.776;9.162;2024-01-10T00:23:10;-3.20;95.50
292;DHT22;23311;48.776;9.162;2024-01-10T00:25:38;-3.20;95.50
292;DHT22;23311;48.776;9.162;2024-01-10T00:28:06;-3.20;95.50
292;DHT22;23311;48.776;9.162;2024-01-10T00:30:35;-3.30;95.50
292;DHT22;23311;48.776;9.162;2024-01-10T00:33:05;-3.30;95.50
292;DHT22;23311;48.776;9.162;2024-01-10T00:35:33;-3.40;95.50
292;DHT22;23311;48.776;9.162;2024-01-10T00:38:02;-3.40;95.50
292;DHT22;23311;48.776;9.162;2024-01-10T00:40:31;-3.40;95.50
292;DHT22;23311;48.776;9.162;2024-01-10T00:42:59;-3.30;95.50
292;DHT22;23311;48.776;9.162;2024-01-10T00:45:27;-3.30;95.50
292;DHT22;23311;48.776;9.162;2024-01-10T00:47:55;-3.30;95.50
292;DHT22;23311;48.776;9.162;2024-01-10T00:50:25;-3.30;95.50
292;DHT22;23311;48.776;9.162;2024-01-10T00:52:53;-3.30;95.50
292;DHT22;23311;48.776;9.162;2024-01-10T00:55:22;-3.30;95.50
292;DHT22;23311;48.776;9.162;2024-01-10T00:57:50;-3.30;95.50
292;DHT22;23311;48.776;9.162;2024-01-10T01:00:18;-3.30;95.50
292;DHT22;23311;48.776;9.162;2024-01-10T01:02:46;-3.40;95.50
292;DHT22;23311;48.776;9.162;2024-01-10T01:05:15;-3.40;95.50
292;DHT22;23311;48.776;9.162;2024-01-10T01:07:44;-3.40;95.50
292;DHT22;23311;48.776;9.162;2024-01-10T01:10:13;-3.40;95.50
292;DHT22;23311;48.776;9.162;2024-01-10T01:12:41;-3.40;95.50
292;DHT22;23311;48.776;9.162;2024-01-10T01:15:09;-3.40;95.50
292;DHT22;23311;48.776;9.162;2024-01-10T01:17:38;-3.40;95.50
292;DHT22;23311;48.776;9.162;2024-01-10T01:20:07;-3.30;95.50
292;DHT22;23311;48.776;9.162;2024-01-10T01:22:36;-3.30;95.50
292;DHT22;23311;48.776;9.162;2024-01-10T01:25:06;-3.20;95.50
292;DHT22;23311;48.776;9.162;2024-01-10T01:27:34;-3.10;95.50
292;DHT22;23311;48.776;9.162;2024-01-10T01:30:03;-3.10;95.50
292;DHT22;23311;48.776;9.162;2024-01-10T01:32:31;-3.10;95.50
292;DHT22;23311;48.776;9.162;2024-01-10T01:35:00;-3.00;95.50
292;DHT22;23311;48.776;9.162;2024-01-10T01:37:28;-3.00;95.50
292;DHT22;23311;48.776;9.162;2024-01-10T01:39:56;-3.00;95.50
292;DHT22;23311;48.776;9.162;2024-01-10T01:42:26;-3.10;95.50
292;DHT22;23311;48.776;9.162;2024-01-10T01:44:54;-3.00;95.50
292;DHT22;23311;48.776;9.162;2024-01-10T01:47:22;-2.90;95.50
292;DHT22;23311;48.776;9.162;2024-01-10T01:49:51;-3.00;95.50
292;DHT22;23311;48.776;9.162;2024-01-10T01:52:18;-3.00;95.50
292;DHT22;23311;48.776;9.162;2024-01-10T01:54:47;-3.00;95.50
292;DHT22;23311;48.776;9.162;2024-01-10T01:57:15;-3.00;95.50
292;DHT22;23311;48.776;9.162;2024-01-10T01:59:45;-3.00;95.50
292;DHT22;23311;48.776;9.162;2024-01-10T02:02:15;-3.00;95.50
292;DHT22;23311;48.776;9.162;2024-01-10T02:04:45;-3.00;95.50
292;DHT22;23311;48.776;9.162;2024-01-10T02:07:14;-3.00;95.50
292;DHT22;23311;48.776;9.162;2024-01-10T02:09:42;-3.10;95.50
292;DHT22;23311;48.776;9.162;2024-01-10T02:12:11;-3.10;95.50
292;DHT22;23311;48.776;9.162;2024-01-10T02:14:39;-3.20;95.50
292;DHT22;23311;48.776;9.162;2024-01-10T02:17:09;-3.20;95.50
292;DHT22;23311;48.776;9.162;2024-01-10T02:19:38;-3.20;95.50
292;DHT22;23311;48.776;9.162;2024-01-10T02:22:06;-3.40;95.50
292;DHT22;23311;48.776;9.162;2024-01-10T02:24:34;-3.40;95.50
292;DHT22;23311;48.776;9.162;2024-01-10T02:27:04;-3.40;95.50
292;DHT22;23311;48.776;9.162;2024-01-10T02:29:34;-3.50;95.50
292;DHT22;23311;48.776;9.162;2024-01-10T02:32:03;-3.50;95.50
292;DHT22;23311;48.776;9.162;2024-01-10T02:34:31;-3.50;95.50
292;DHT22;23311;48.776;9.162;2024-01-10T02:36:59;-3.50;95.50
292;DHT22;23311;48.776;9.162;2024-01-10T02:39:27;-3.50;95.50
292;DHT22;23311;48.776;9.162;2024-01-10T02:41:55;-3.60;95.50
292;DHT22;23311;48.776;9.162;2024-01-10T02:44:25;-3.70;95.50
292;DHT22;23311;48.776;9.162;2024-01-10T02:46:55;-3.80;95.50
292;DHT22;23311;48.776;9.162;2024-01-10T02:49:23;-3.80;95.50
292;DHT22;23311;48.776;9.162;2024-01-10T02:51:51;-3.80;95.50
292;DHT22;23311;48.776;9.162;2024-01-10T02:54:20;-3.70;95.50
292;DHT22;23311;48.776;9.162;2024-01-10T02:56:48;-3.70;95.50
292;DHT22;23311;48.776;9.162;2024-01-10T02:59:16;-3.60;95.50
292;DHT22;23311;48.776;9.162;2024-01-10T03:01:46;-3.70;95.50
292;DHT22;23311;48.776;9.162;2024-01-10T03:04:14;-3.60;95.50
292;DHT22;23311;48.776;9.162;2024-01-10T03:06:42;-3.50;95.50
292;DHT22;23311;48.776;9.162;2024-01-10T03:09:11;-3.50;95.50
292;DHT22;23311;48.776;9.162;2024-01-10T03:11:39;-3.40;95.50
292;DHT22;23311;48.776;9.162;2024-01-10T03:14:09;-3.30;95.50
292;DHT22;23311;48.776;9.162;2024-01-10T03:16:37;-3.30;95.50
292;DHT22;23311;48.776;9.162;2024-01-10T03:19:07;-3.30;95.50
292;DHT22;23311;48.776;9.162;2024-01-10T03:21:36;-3.20;95.50
292;DHT22;23311;48.776;9.162;2024-01-10T03:24:05;-3.10;95.50
292;DHT22;23311;48.776;9.162;2024-01-10T03:26:33;-3.10;95.50
292;DHT22;23311;48.776;9.162;2024-01-10T03:29:01;-3.10;95.50
292;DHT22;23311;48.776;9.162;2024-01-10T03:31:30;-3.10;95.50
292;DHT22;23311;48.776;9.162;2024-01-10T03:33:58;-3.10;95.50
292;DHT22;23311;48.776;9.162;2024-01-10T03:36:28;-3.10;95.50
292;DHT22;23311;48.776;9.162;2024-01-10T03:38:56;-3.10;95.50
292;DHT22;23311;48.776;9.162;2024-01-10T03:41:24;-3.10;95.50
292;DHT22;23311;48.776;9.162;2024-01-10T03:43:53;-3.10;95.50
292;DHT22;23311;48.776;9.162;2024-01-10T03:46:22;-3.10;95.50
292;DHT22;23311;48.776;9.162;2024-01-10T03:48:50;-3.00;95.50
292;DHT22;23311;48.776;9.162;2024-01-10T03:51:19;-3.00;95.50
292;DHT22;23311;48.776;9.162;2024-01-10T03:53:49;-3.00;95.50
292;DHT22;23311;48.776;9.162;2024-01-10T03:56:18;-3.10;95.50
292;DHT22;23311;48.776;9.162;2024-01-10T03:58:47;-3.10;95.50
292;DHT22;23311;48.776;9.162;2024-01-10T04:01:16;-3.10;95.50
292;DHT22;23311;48.776;9.162;2024-01-10T04:03:44;-3.10;95.50
292;DHT22;23311;48.776;9.162;2024-01-10T04:06:12;-3.00;95.50
292;DHT22;23311;48.776;9.162;2024-01-10T04:08:41;-3.10;95.50
292;DHT22;23311;48.776;9.162;2024-01-10T04:11:10;-3.20;95.50
292;DHT22;23311;48.776;9.162;2024-01-10T04:13:39;-3.20;95.50
292;DHT22;23311;48.776;9.162;2024-01-10T04:16:08;-3.20;95.50
292;DHT22;23311;48.776;9.162;2024-01-10T04:18:35;-3.10;95.50
292;DHT22;23311;48.776;9.162;2024-01-10T04:21:04;-3.00;95.50
292;DHT22;23311;48.776;9.162;2024-01-10T04:23:32;-3.00;95.50
292;DHT22;23311;48.776;9.162;2024-01-10T04:26:01;-3.00;95.50
292;DHT22;23311;48.776;9.162;2024-01-10T04:28:31;-3.00;95.50
292;DHT22;23311;48.776;9.162;2024-01-10T04:30:59;-3.00;95.50
292;DHT22;23311;48.776;9.162;2024-01-10T04:33:27;-3.00;95.50
292;DHT22;23311;48.776;9.162;2024-01-10T04:35:56;-3.00;95.50
292;DHT22;23311;48.776;9.162;2024-01-10T04:38:24;-3.00;95.50
292;DHT22;23311;48.776;9.162;2024-01-10T04:40:53;-3.00;95.50
292;DHT22;23311;48.776;9.162;2024-01-10T04:43:22;-2.90;95.50
292;DHT22;23311;48.776;9.162;2024-01-10T04:45:51;-2.90;95.50
292;DHT22;23311;48.776;9.162;2024-01-10T04:48:20;-2.90;95.50
292;DHT22;23311;48.776;9.162;2024-01-10T04:50:48;-2.90;95.50
292;DHT22;23311;48.776;9.162;2024-01-10T04:53:16;-2.90;95.50
292;DHT22;23311;48.776;9.162;2024-01-10T04:55:44;-2.90;95.50
292;DHT22;23311;48.776;9.162;2024-01-10T04:58:17;-3.00;95.50
292;DHT22;23311;48.776;9.162;2024-01-10T05:00:45;-2.90;95.50
292;DHT22;23311;48.776;9.162;2024-01-10T05:03:15;-2.90;95.50
292;DHT22;23311;48.776;9.162;2024-01-10T05:05:43;-3.00;95.50
292;DHT22;23311;48.776;9.162;2024-01-10T05:08:12;-3.00;95.50
292;DHT22;23311;48.776;9.162;2024-01-10T05:10:40;-3.10;95.50
292;DHT22;23311;48.776;9.162;2024-01-10T05:13:08;-3.10;95.50
292;DHT22;23311;48.776;9.162;2024-01-10T05:15:36;-3.10;95.50
292;DHT22;23311;48.776;9.162;2024-01-10T05:18:05;-3.10;95.50
292;DHT22;23311;48.776;9.162;2024-01-10T05:20:35;-3.20;95.50
292;DHT22;23311;48.776;9.162;2024-01-10T05:23:03;-3.20;95.50
292;DHT22;23311;48.776;9.162;2024-01-10T05:25:32;-3.30;95.50
292;DHT22;23311;48.776;9.162;2024-01-10T05:28:00;-3.30;95.50
292;DHT22;23311;48.776;9.162;2024-01-10T05:30:29;-3.40;95.50
292;DHT22;23311;48.776;9.162;2024-01-10T05:32:59;-3.40;95.50
292;DHT22;23311;48.776;9.162;2024-01-10T05:35:27;-3.50;95.50
292;DHT22;23311;48.776;9.162;2024-01-10T05:37:56;-3.40;95.50
292;DHT22;23311;48.776;9.162;2024-01-10T05:40:25;-3.40;95.50
292;DHT22;23311;48.776;9.162;2024-01-10T05:42:54;-3.40;95.50
292;DHT22;23311;48.776;9.162;2024-01-10T05:45:22;-3.50;95.50
292;DHT22;23311;48.776;9.162;2024-01-10T05:47:50;-3.60;95.50
292;DHT22;23311;48.776;9.162;2024-01-10T05:50:19;-3.60;95.50
292;DHT22;23311;48.776;9.162;2024-01-10T05:52:50;-3.70;95.50
292;DHT22;23311;48.776;9.162;2024-01-10T05:55:20;-3.70;95.50
292;DHT22;23311;48.776;9.162;2024-01-10T05:57:48;-3.70;95.50
292;DHT22;23311;48.776;9.162;2024-01-10T06:00:16;-3.80;95.50
292;DHT22;23311;48.776;9.162;2024-01-10T06:02:45;-3.70;95.50
292;DHT22;23311;48.776;9.162;2024-01-10T06:05:13;-3.70;95.50
292;DHT22;23311;48.776;9.162;2024-01-10T06:07:41;-3.70;95.50
292;DHT22;23311;48.776;9.162;2024-01-10T06:10:10;-3.70;95.50
292;DHT22;23311;48.776;9.162;2024-01-10T06:12:40;-3.60;95.50
292;DHT22;23311;48.776;9.162;2024-01-10T06:15:09;-3.70;95.50
292;DHT22;23311;48.776;9.162;2024-01-10T06:17:37;-3.70;95.50
292;DHT22;23311;48.776;9.162;2024-01-10T06:20:07;-3.80;95.50
292;DHT22;23311;48.776;9.162;2024-01-10T06:22:36;-3.80;95.50
292;DHT22;23311;48.776;9.162;2024-01-10T06:25:05;-3.80;95.50
292;DHT22;23311;48.776;9.162;2024-01-10T06:27:33;-3.80;95.50
292;DHT22;23311;48.776;9.162;2024-01-10T06:30:03;-3.80;95.50
292;DHT22;23311;48.776;9.162;2024-01-10T06:32:32;-3.80;95.50
292;DHT22;23311;48.776;9.162;2024-01-10T06:35:00;-3.70;95.50
292;DHT22;23311;48.776;9.162;2024-01-10T06:37:29;-3.80;95.50
292;DHT22;23311;48.776;9.162;2024-01-10T06:40:00;-3.90;95.50
292;DHT22;23311;48.776;9.162;2024-01-10T06:42:29;-3.90;95.50
292;DHT22;23311;48.776;9.162;2024-01-10T06:44:57;-4.10;95.50
292;DHT22;23311;48.776;9.162;2024-01-10T06:47:26;-3.80;95.50
292;DHT22;23311;48.776;9.162;2024-01-10T06:49:55;-3.90;95.50
292;DHT22;23311;48.776;9.162;2024-01-10T06:52:24;-3.90;95.50
292;DHT22;23311;48.776;9.162;2024-01-10T06:54:52;-3.90;95.50
292;DHT22;23311;48.776;9.162;2024-01-10T06:57:20;-3.90;95.50
292;DHT22;23311;48.776;9.162;2024-01-10T06:59:48;-4.00;95.50
292;DHT22;23311;48.776;9.162;2024-01-10T07:02:16;-4.10;95.50
292;DHT22;23311;48.776;9.162;2024-01-10T07:04:46;-4.10;95.50
292;DHT22;23311;48.776;9.162;2024-01-10T07:07:16;-4.10;95.50
292;DHT22;23311;48.776;9.162;2024-01-10T07:09:45;-4.10;95.50
292;DHT22;23311;48.776;9.162;2024-01-10T07:12:13;-4.10;95.50
292;DHT22;23311;48.776;9.162;2024-01-10T07:14:41;-4.00;95.50
292;DHT22;23311;48.776;9.162;2024-01-10T07:17:09;-4.10;95.50
292;DHT22;23311;48.776;9.162;2024-01-10T07:19:38;-4.10;95.50
292;DHT22;23311;48.776;9.162;2024-01-10T07:22:09;-4.20;95.50
292;DHT22;23311;48.776;9.162;2024-01-10T07:24:38;-4.20;95.50
292;DHT22;23311;48.776;9.162;2024-01-10T07:27:06;-4.20;95.50
292;DHT22;23311;48.776;9.162;2024-01-10T07:29:34;-4.10;95.50
292;DHT22;23311;48.776;9.162;2024-01-10T07:32:03;-4.20;95.50
292;DHT22;23311;48.776;9.162;2024-01-10T07:34:32;-4.20;95.50
292;DHT22;23311;48.776;9.162;2024-01-10T07:37:00;-4.10;95.50
292;DHT22;23311;48.776;9.162;2024-01-10T07:39:31;-4.20;95.50
292;DHT22;23311;48.776;9.162;2024-01-10T07:41:59;-4.20;95.50
292;DHT22;23311;48.776;9.162;2024-01-10T07:44:29;-4.20;95.50
292;DHT22;23311;48.776;9.162;2024-01-10T07:46:57;-4.10;95.50
292;DHT22;23311;48.776;9.162;2024-01-10T07:49:25;-4.10;95.50
292;DHT22;23311;48.776;9.162;2024-01-10T07:51:54;-4.00;95.50
292;DHT22;23311;48.776;9.162;2024-01-10T07:54:23;-3.90;95.50
292;DHT22;23311;48.776;9.162;2024-01-10T07:56:52;-3.80;95.50
292;DHT22;23311;48.776;9.162;2024-01-10T07:59:21;-3.70;95.50
292;DHT22;23311;48.776;9.162;2024-01-10T08:01:55;-3.50;95.50
292;DHT22;23311;48.776;9.162;2024-01-10T08:04:26;-3.50;95.50
292;DHT22;23311;48.776;9.162;2024-01-10T08:06:54;-3.40;95.50
292;DHT22;23311;48.776;9.162;2024-01-10T08:09:22;-3.40;95.50
292;DHT22;23311;48.776;9.162;2024-01-10T08:11:53;-3.30;95.50
292;DHT22;23311;48.776;9.162;2024-01-10T08:14:21;-3.20;95.50
292;DHT22;23311;48.776;9.162;2024-01-10T08:16:49;-3.10;95.50
292;DHT22;23311;48.776;9.162;2024-01-10T08:19:20;-3.00;95.50
292;DHT22;23311;48.776;9.162;2024-01-10T08:21:48;-2.80;95.50
292;DHT22;23311;48.776;9.162;2024-01-10T08:24:17;-2.80;95.50
292;DHT22;23311;48.776;9.162;2024-01-10T08:26:46;-2.60;95.50
292;DHT22;23311;48.776;9.162;2024-01-10T08:29:17;-2.50;95.50
292;DHT22;23311;48.776;9.162;2024-01-10T08:31:46;-2.30;95.50
292;DHT22;23311;48.776;9.162;2024-01-10T08:34:14;-2.20;95.50
292;DHT22;23311;48.776;9.162;2024-01-10T08:36:43;-2.10;95.50
292;DHT22;23311;48.776;9.162;2024-01-10T08:39:11;-2.00;95.50
292;DHT22;23311;48.776;9.162;2024-01-10T08:41:39;-2.10;95.50
292;DHT22;23311;48.776;9.162;2024-01-10T08:44:11;-2.10;95.50
292;DHT22;23311;48.776;9.162;2024-01-10T08:46:40;-2.10;95.50
292;DHT22;23311;48.776;9.162;2024-01-10T08:49:09;-2.20;95.50
292;DHT22;23311;48.776;9.162;2024-01-10T08:51:37;-2.30;95.50
292;DHT22;23311;48.776;9.162;2024-01-10T08:54:07;-2.30;95.50
292;DHT22;23311;48.776;9.162;2024-01-10T08:56:36;-2.40;95.50
292;DHT22;23311;48.776;9.162;2024-01-10T08:59:04;-2.40;95.50
292;DHT22;23311;48.776;9.162;2024-01-10T09:01:33;-2.50;95.50
292;DHT22;23311;48.776;9.162;2024-01-10T09:04:03;-2.40;95.50
292;DHT22;23311;48.776;9.162;2024-01-10T09:06:31;-2.40;95.50
292;DHT22;23311;48.776;9.162;2024-01-10T09:09:00;-2.30;95.50
292;DHT22;23311;48.776;9.162;2024-01-10T09:11:28;-2.30;95.50
292;DHT22;23311;48.776;9.162;2024-01-10T09:13:57;-2.30;95.50
292;DHT22;23311;48.776;9.162;2024-01-10T09:16:26;-2.30;95.50
292;DHT22;23311;48.776;9.162;2024-01-10T09:18:54;-2.20;95.50
292;DHT22;23311;48.776;9.162;2024-01-10T09:21:25;-2.20;95.50
292;DHT22;23311;48.776;9.162;2024-01-10T09:23:54;-2.20;95.50
292;DHT22;23311;48.776;9.162;2024-01-10T09:26:24;-2.10;95.50
292;DHT22;23311;48.776;9.162;2024-01-10T09:28:52;-2.10;95.50
292;DHT22;23311;48.776;9.162;2024-01-10T09:31:20;-2.10;95.50
292;DHT22;23311;48.776;9.162;2024-01-10T09:33:48;-2.10;95.50
292;DHT22;23311;48.776;9.162;2024-01-10T09:36:17;-2.00;95.50
292;DHT22;23311;48.776;9.162;2024-01-10T09:38:46;-2.10;95.50
292;DHT22;23311;48.776;9.162;2024-01-10T09:41:14;-1.90;95.50
292;DHT22;23311;48.776;9.162;2024-01-10T09:43:43;-1.90;95.50
292;DHT22;23311;48.776;9.162;2024-01-10T09:46:12;-1.90;95.50
292;DHT22;23311;48.776;9.162;2024-01-10T09:48:42;-1.80;95.50
292;DHT22;23311;48.776;9.162;2024-01-10T09:51:11;-1.70;95.50
292;DHT22;23311;48.776;9.162;2024-01-10T09:53:44;-1.60;95.50
292;DHT22;23311;48.776;9.162;2024-01-10T09:56:17;-1.70;95.50
292;DHT22;23311;48.776;9.162;2024-01-10T09:58:48;-1.60;95.50
292;DHT22;23311;48.776;9.162;2024-01-10T10:01:18;-1.60;95.50
292;DHT22;23311;48.776;9.162;2024-01-10T10:03:49;-1.60;95.50
292;DHT22;23311;48.776;9.162;2024-01-10T10:06:17;-1.50;95.50
292;DHT22;23311;48.776;9.162;2024-01-10T10:08:46;-1.50;95.50
292;DHT22;23311;48.776;9.162;2024-01-10T10:11:14;-1.50;95.50
292;DHT22;23311;48.776;9.162;2024-01-10T10:13:44;-1.40;95.50
292;DHT22;23311;48.776;9.162;2024-01-10T10:16:12;-1.30;95.50
292;DHT22;23311;48.776;9.162;2024-01-10T10:18:41;-1.20;95.50
292;DHT22;23311;48.776;9.162;2024-01-10T10:21:11;-1.20;95.50
292;DHT22;23311;48.776;9.162;2024-01-10T10:23:41;-1.10;95.50
292;DHT22;23311;48.776;9.162;2024-01-10T10:26:11;-1.00;95.50
292;DHT22;23311;48.776;9.162;2024-01-10T10:28:43;-1.00;95.50
292;DHT22;23311;48.776;9.162;2024-01-10T10:31:12;-1.00;95.50
292;DHT22;23311;48.776;9.162;2024-01-10T10:33:40;-0.90;95.50
292;DHT22;23311;48.776;9.162;2024-01-10T10:36:09;-0.90;95.50
292;DHT22;23311;48.776;9.162;2024-01-10T10:38:37;-0.80;95.50
292;DHT22;23311;48.776;9.162;2024-01-10T10:41:06;-0.70;95.50
292;DHT22;23311;48.776;9.162;2024-01-10T10:43:39;-0.70;95.50
292;DHT22;23311;48.776;9.162;2024-01-10T10:46:10;-0.60;95.50
292;DHT22;23311;48.776;9.162;2024-01-10T10:48:39;-0.60;95.50
292;DHT22;23311;48.776;9.162;2024-01-10T10:51:09;-0.50;95.50
292;DHT22;23311;48.776;9.162;2024-01-10T10:53:38;-0.50;95.50
292;DHT22;23311;48.776;9.162;2024-01-10T10:56:08;-0.40;95.50
292;DHT22;23311;48.776;9.162;2024-01-10T10:58:38;-0.50;95.50
292;DHT22;23311;48.776;9.162;2024-01-10T11:01:11;-0.50;95.50
292;DHT22;23311;48.776;9.162;2024-01-10T11:03:40;-0.50;95.50
292;DHT22;23311;48.776;9.162;2024-01-10T11:06:10;-0.40;95.50
292;DHT22;23311;48.776;9.162;2024-01-10T11:08:44;-0.40;95.50
292;DHT22;23311;48.776;9.162;2024-01-10T11:11:22;-0.30;95.50
292;DHT22;23311;48.776;9.162;2024-01-10T11:14:06;-0.20;95.50
292;DHT22;23311;48.776;9.162;2024-01-10T11:17:14;-0.30;95.50
292;DHT22;23311;48.776;9.162;2024-01-10T11:20:13;-0.50;95.50
292;DHT22;23311;48.776;9.162;2024-01-10T11:23:01;-0.40;95.50
292;DHT22;23311;48.776;9.162;2024-01-10T11:25:35;-0.20;95.50
292;DHT22;23311;48.776;9.162;2024-01-10T11:28:04;-0.20;95.50
292;DHT22;23311;48.776;9.162;2024-01-10T11:30:35;-0.20;95.50
292;DHT22;23311;48.776;9.162;2024-01-10T11:33:20;-0.10;95.50
292;DHT22;23311;48.776;9.162;2024-01-10T11:36:09;-0.10;95.50
292;DHT22;23311;48.776;9.162;2024-01-10T11:38:43;0.00;95.50
292;DHT22;23311;48.776;9.162;2024-01-10T11:41:11;0.00;95.50
292;DHT22;23311;48.776;9.162;2024-01-10T11:43:40;0.00;95.50
292;DHT22;23311;48.776;9.162;2024-01-10T11:46:08;0.20;95.50
292;DHT22;23311;48.776;9.162;2024-01-10T11:48:40;0.20;95.50
292;DHT22;23311;48.776;9.162;2024-01-10T11:51:09;0.20;95.50
292;DHT22;23311;48.776;9.162;2024-01-10T11:53:38;0.20;95.50
292;DHT22;23311;48.776;9.162;2024-01-10T11:56:11;0.30;95.50
292;DHT22;23311;48.776;9.162;2024-01-10T11:59:00;0.40;95.50
292;DHT22;23311;48.776;9.162;2024-01-10T12:01:30;0.40;95.50
292;DHT22;23311;48.776;9.162;2024-01-10T12:04:00;0.30;95.50
292;DHT22;23311;48.776;9.162;2024-01-10T12:06:45;0.40;95.50
292;DHT22;23311;48.776;9.162;2024-01-10T12:09:14;0.50;95.50
292;DHT22;23311;48.776;9.162;2024-01-10T12:11:43;0.50;95.50
292;DHT22;23311;48.776;9.162;2024-01-10T12:14:11;0.60;95.50
292;DHT22;23311;48.776;9.162;2024-01-10T12:16:40;0.70;95.50
292;DHT22;23311;48.776;9.162;2024-01-10T12:19:10;0.70;95.50
292;DHT22;23311;48.776;9.162;2024-01-10T12:21:39;0.80;95.50
292;DHT22;23311;48.776;9.162;2024-01-10T12:24:07;0.70;95.50
292;DHT22;23311;48.776;9.162;2024-01-10T12:26:35;0.70;95.50
292;DHT22;23311;48.776;9.162;2024-01-10T12:29:05;0.70;95.50
292;DHT22;23311;48.776;9.162;2024-01-10T12:31:34;0.60;95.50
292;DHT22;23311;48.776;9.162;2024-01-10T12:34:02;0.50;95.50
292;DHT22;23311;48.776;9.162;2024-01-10T12:36:35;0.40;95.50
292;DHT22;23311;48.776;9.162;2024-01-10T12:39:03;0.40;95.50
292;DHT22;23311;48.776;9.162;2024-01-10T12:41:34;0.50;95.50
292;DHT22;23311;48.776;9.162;2024-01-10T12:44:03;0.50;95.50
292;DHT22;23311;48.776;9.162;2024-01-10T12:46:34;0.60;95.50
292;DHT22;23311;48.776;9.162;2024-01-10T12:49:06;0.60;95.50
292;DHT22;23311;48.776;9.162;2024-01-10T12:51:36;0.70;95.50
292;DHT22;23311;48.776;9.162;2024-01-10T12:54:04;0.70;95.50
292;DHT22;23311;48.776;9.162;2024-01-10T12:56:32;0.70;95.50
292;DHT22;23311;48.776;9.162;2024-01-10T12:59:01;0.70;95.50
292;DHT22;23311;48.776;9.162;2024-01-10T13:01:31;0.80;95.50
292;DHT22;23311;48.776;9.162;2024-01-10T13:03:59;0.80;95.50
292;DHT22;23311;48.776;9.162;2024-01-10T13:06:30;0.80;95.50
292;DHT22;23311;48.776;9.162;2024-01-10T13:08:59;0.80;95.50
292;DHT22;23311;48.776;9.162;2024-01-10T13:11:28;0.80;95.50
292;DHT22;23311;48.776;9.162;2024-01-10T13:13:57;0.80;95.50
292;DHT22;23311;48.776;9.162;2024-01-10T13:16:25;0.80;95.50
292;DHT22;23311;48.776;9.162;2024-01-10T13:18:53;0.90;95.50
292;DHT22;23311;48.776;9.162;2024-01-10T13:21:24;1.00;95.50
292;DHT22;23311;48.776;9.162;2024-01-10T13:23:53;0.90;95.50
292;DHT22;23311;48.776;9.162;2024-01-10T13:26:23;0.90;95.50
292;DHT22;23311;48.776;9.162;2024-01-10T13:28:51;0.90;95.50
292;DHT22;23311;48.776;9.162;2024-01-10T13:31:19;1.00;95.50
292;DHT22;23311;48.776;9.162;2024-01-10T13:33:48;1.00;95.50
292;DHT22;23311;48.776;9.162;2024-01-10T13:36:18;0.90;95.50
292;DHT22;23311;48.776;9.162;2024-01-10T13:38:47;0.90;95.50
292;DHT22;23311;48.776;9.162;2024-01-10T13:41:15;0.80;95.50
292;DHT22;23311;48.776;9.162;2024-01-10T13:43:45;0.80;95.50
292;DHT22;23311;48.776;9.162;2024-01-10T13:46:13;0.80;95.50
292;DHT22;23311;48.776;9.162;2024-01-10T13:48:41;0.80;95.50
292;DHT22;23311;48.776;9.162;2024-01-10T13:51:09;0.80;95.50
292;DHT22;23311;48.776;9.162;2024-01-10T13:53:38;0.80;95.50
292;DHT22;23311;48.776;9.162;2024-01-10T13:56:07;0.70;95.50
292;DHT22;23311;48.776;9.162;2024-01-10T13:58:35;0.80;95.50
292;DHT22;23311;48.776;9.162;2024-01-10T14:01:04;0.80;95.50
292;DHT22;23311;48.776;9.162;2024-01-10T14:03:33;0.70;95.50
292;DHT22;23311;48.776;9.162;2024-01-10T14:06:01;0.60;95.50
292;DHT22;23311;48.776;9.162;2024-01-10T14:08:31;0.60;95.50
292;DHT22;23311;48.776;9.162;2024-01-10T14:10:59;0.60;95.50
292;DHT22;23311;48.776;9.162;2024-01-10T14:13:27;0.60;95.50
292;DHT22;23311;48.776;9.162;2024-01-10T14:15:55;0.70;95.50
292;DHT22;23311;48.776;9.162;2024-01-10T14:18:25;0.70;95.50
292;DHT22;23311;48.776;9.162;2024-01-10T14:20:53;0.70;95.50
292;DHT22;23311;48.776;9.162;2024-01-10T14:23:21;0.60;95.50
292;DHT22;23311;48.776;9.162;2024-01-10T14:25:51;0.60;95.50
292;DHT22;23311;48.776;9.162;2024-01-10T14:28:20;0.60;95.50
292;DHT22;23311;48.776;9.162;2024-01-10T14:30:48;0.60;95.50
292;DHT22;23311;48.776;9.162;2024-01-10T14:33:20;0.60;95.50
292;DHT22;23311;48.776;9.162;2024-01-10T14:35:50;0.60;95.50
292;DHT22;23311;48.776;9.162;2024-01-10T14:38:18;0.60;95.50
292;DHT22;23311;48.776;9.162;2024-01-10T14:40:48;0.50;95.50
292;DHT22;23311;48.776;9.162;2024-01-10T14:43:16;0.40;95.50
292;DHT22;23311;48.776;9.162;2024-01-10T14:45:45;0.40;95.50
292;DHT22;23311;48.776;9.162;2024-01-10T14:48:13;0.40;95.50
292;DHT22;23311;48.776;9.162;2024-01-10T14:50:41;0.30;95.50
292;DHT22;23311;48.776;9.162;2024-01-10T14:53:11;0.40;95.50
292;DHT22;23311;48.776;9.162;2024-01-10T14:55:39;0.30;95.50
292;DHT22;23311;48.776;9.162;2024-01-10T14:58:07;0.30;95.50
292;DHT22;23311;48.776;9.162;2024-01-10T15:00:36;0.20;95.50
292;DHT22;23311;48.776;9.162;2024-01-10T15:03:04;0.10;95.50
292;DHT22;23311;48.776;9.162;2024-01-10T15:05:46;0.10;95.50
292;DHT22;23311;48.776;9.162;2024-01-10T15:08:16;0.20;95.50
292;DHT22;23311;48.776;9.162;2024-01-10T15:10:45;0.10;95.50
292;DHT22;23311;48.776;9.162;2024-01-10T15:13:13;0.00;95.50
292;DHT22;23311;48.776;9.162;2024-01-10T15:15:45;-0.10;95.50
292;DHT22;23311;48.776;9.162;2024-01-10T15:18:13;-0.10;95.50
292;DHT22;23311;48.776;9.162;2024-01-10T15:20:42;-0.20;95.50
292;DHT22;23311;48.776;9.162;2024-01-10T15:23:11;-0.40;95.50
292;DHT22;23311;48.776;9.162;2024-01-10T15:25:41;-0.50;95.50
292;DHT22;23311;48.776;9.162;2024-01-10T15:28:09;-0.40;95.50
292;DHT22;23311;48.776;9.162;2024-01-10T15:30:37;-0.40;95.50
292;DHT22;23311;48.776;9.162;2024-01-10T15:33:13;-0.50;95.50
292;DHT22;23311;48.776;9.162;2024-01-10T15:35:43;-0.50;95.50
292;DHT22;23311;48.776;9.162;2024-01-10T15:38:11;-0.30;95.50
292;DHT22;23311;48.776;9.162;2024-01-10T15:40:41;-0.40;95.50
292;DHT22;23311;48.776;9.162;2024-01-10T15:43:10;-0.50;95.50
292;DHT22;23311;48.776;9.162;2024-01-10T15:45:38;-0.40;95.50
292;DHT22;23311;48.776;9.162;2024-01-10T15:48:06;-0.50;95.50
292;DHT22;23311;48.776;9.162;2024-01-10T15:50:34;-0.50;95.50
292;DHT22;23311;48.776;9.162;2024-01-10T15:53:03;-0.70;95.50
292;DHT22;23311;48.776;9.162;2024-01-10T15:55:31;-0.60;95.50
292;DHT22;23311;48.776;9.162;2024-01-10T15:58:04;-0.50;95.50
292;DHT22;23311;48.776;9.162;2024-01-10T16:00:33;-0.60;95.50
292;DHT22;23311;48.776;9.162;2024-01-10T16:03:02;-0.70;95.50
292;DHT22;23311;48.776;9.162;2024-01-10T16:05:33;-0.70;95.50
292;DHT22;23311;48.776;9.162;2024-01-10T16:08:03;-0.90;95.50
292;DHT22;23311;48.776;9.162;2024-01-10T16:10:31;-0.90;95.50
292;DHT22;23311;48.776;9.162;2024-01-10T16:12:59;-1.00;95.50
292;DHT22;23311;48.776;9.162;2024-01-10T16:15:29;-1.20;95.50
292;DHT22;23311;48.776;9.162;2024-01-10T16:17:57;-1.20;95.50